• Join FlightAware (Why Join?)
  • Login
  • US Flag 
10:15PM EDT


 

Airport Tracker/Info


-or-


 

Live Flight TrackerFlight Track Log ✈ LJY630 ✈ 24-Dec-2013 ✈ KLBE - KILG

Flight Track Log - Related Links

Times and Time Zones

All times are in EST time to prevent confusion due to time zone crossing. See the LJY630 flight status page for this flight to view local times or setup timezone preferences in your user account.

Time Position Orientation Groundspeed Altitude Reporting Facility
EST Latitude Longitude Course Direction KTS MPH feet Rate Location/Type
08:37AM 40.2350 -79.4331 171° South 223 257 3,900  Level Cleveland Center
08:38AM 40.2308 -79.4322 171° South 206 237 4,300 4,200 Climbing Cleveland Center
08:38AM 40.2169 -79.4100 129° Southeast 233 268 6,000 2,820 Climbing Cleveland Center
08:39AM 40.2269 -79.3164 82° East 272 313 8,300 2,940 Climbing Cleveland Center
08:40AM 40.2497 -79.1986 76° East 293 337 12,100 3,060 Climbing Cleveland Center
08:41AM 40.2733 -79.0703 76° East 358 412 14,600 2,400 Climbing Cleveland Center
08:42AM 40.2997 -78.9267 76° East 403 464 17,100 2,340 Climbing Cleveland Center
08:43AM 40.3175 -78.7717 81° East 431 496 19,400 1,860 Climbing Cleveland Center
08:44AM 40.3164 -78.6117 90° East 441 507 21,000 780 Climbing Cleveland Center
08:45AM 40.3156 -78.4408 90° East 469 540 21,000  Level Cleveland Center
08:46AM 40.3150 -78.2364 90° East 473 544 21,000  Level Cleveland Center
08:47AM 40.3147 -78.0656 90° East 473 544 21,000  Level Cleveland Center
08:48AM 40.3125 -77.8953 91° East 473 544 21,000  Level Cleveland Center
08:49AM 40.2972 -77.7278 97° East 467 537 21,000  Level Cleveland Center
08:50AM 40.2789 -77.5558 98° East 462 532 21,000  Level Cleveland Center
08:51AM 40.2619 -77.3883 97° East 463 533 21,000  Level Cleveland Center
08:52AM 40.2453 -77.2222 97° East 461 531 21,000  Level Cleveland Center
08:53AM 40.2269 -77.0561 98° East 461 531 21,000 -660 Level Cleveland Center
08:54AM 40.2097 -76.8892 98° East 463 533 19,700 -1,560 Descending Cleveland Center
08:55AM 40.1892 -76.7108 99° East 464 534 17,900 -1,800 Descending New York Center
08:56AM 40.1719 -76.5517 98° East 447 514 16,200 -1,740 Descending New York Center
08:57AM 40.1539 -76.4064 99° East 424 488 14,500 -1,680 Descending New York Center
08:58AM 40.1414 -76.2750 97° East 402 463 12,900 -1,560 Descending New York Center
08:59AM 40.1250 -76.1350 99° East 372 428 11,400 -1,380 Descending New York Center
09:00AM 40.1069 -76.0225 102° East 331 381 10,200 -1,380 Descending New York Center
09:01AM 40.0519 -75.9478 134° Southeast 275 316 8,700 -1,500 Descending New York Center
09:02AM 39.9939 -75.8947 145° Southeast 280 322 7,300 -1,380 Descending New York Center
09:03AM 39.9194 -75.8350 148° Southeast 285 328 6,000 -1,200 Descending New York Center
09:04AM 39.8628 -75.7931 150° Southeast 273 314 4,900 -1,320 Descending New York Center
09:05AM 39.7964 -75.7369 147° Southeast 262 302 3,500 -1,140 Descending New York Center
09:06AM 39.7439 -75.6928 147° Southeast 256 295 2,700 -840 Descending New York Center
09:07AM 39.6803 -75.6667 162° South 231 266 1,900 -840 Descending New York Center
09:08AM 39.6350 -75.6581 172° South 199 229 1,100 -600 Descending New York Center
09:09AM 39.6389 -75.6125 84° East 123 142 800 -300 Descending New York Center
09:10AM 39.6503 -75.5892 58° Northeast 79 91 500 -300 Descending New York Center
09:14AM 39.6667 -75.6000 163° South  Level FlightAware Approximate
09:21AM 39.6787 -75.6066 163° South  Level Estimated
09:22AM 39.6787 -75.6066 163° South  Level Estimated
09:23AM 39.6787 -75.6066 163° South  Level Estimated
09:24AM 39.6787 -75.6066 163° South  Level Estimated